Time;durP1;ratioP1;P1;durP2;ratioP2;P2;SDS_P1;SDS_P2;PMS_P1;PMS_P2;Temp;Humidity;BMP_temperature;BMP_pressure;BME280_temperature;BME280_humidity;BME280_pressure;Samples;Min_cycle;Max_cycle;Signal;HPM_P1;HPM_P2
2023/09/27 00:00:08;;;;;;;11.17;10.87;;;22.60;93.90;;;;;;5076312;28;20462;-68
2023/09/27 00:02:38;;;;;;;11.00;10.60;;;22.60;93.90;;;;;;5075234;28;20447;-68
2023/09/27 00:05:06;;;;;;;10.70;10.30;;;22.60;94.00;;;;;;5074747;28;21038;-69
2023/09/27 00:07:34;;;;;;;11.40;10.97;;;22.60;93.90;;;;;;5077288;28;20448;-69
2023/09/27 00:10:01;;;;;;;10.60;10.20;;;22.50;94.00;;;;;;5076448;28;20447;-68
2023/09/27 00:12:28;;;;;;;11.43;10.83;;;22.60;94.00;;;;;;5075985;28;20469;-69
2023/09/27 00:14:55;;;;;;;10.97;10.57;;;22.50;94.00;;;;;;5072437;28;20826;-69
2023/09/27 00:17:22;;;;;;;10.10;9.73;;;22.50;94.00;;;;;;5074909;28;20447;-68
2023/09/27 00:19:51;;;;;;;10.87;10.47;;;22.50;94.10;;;;;;5077850;28;20443;-68
2023/09/27 00:22:17;;;;;;;10.17;9.87;;;22.50;94.10;;;;;;5075059;28;20467;-68
2023/09/27 00:24:44;;;;;;;10.60;10.30;;;22.50;94.10;;;;;;5078879;28;20482;-69
2023/09/27 00:27:11;;;;;;;10.33;10.03;;;22.50;94.10;;;;;;5074793;28;20471;-68
2023/09/27 00:29:38;;;;;;;11.40;10.83;;;22.50;94.20;;;;;;5084643;28;20916;-68
2023/09/27 00:32:05;;;;;;;10.57;10.20;;;22.50;94.20;;;;;;5075704;28;20962;-69
2023/09/27 00:34:32;;;;;;;9.97;9.67;;;22.50;94.10;;;;;;5074522;28;20487;-69
2023/09/27 00:37:01;;;;;;;10.53;10.13;;;22.50;94.30;;;;;;5074584;28;20479;-69
2023/09/27 00:39:28;;;;;;;10.77;10.47;;;22.50;94.30;;;;;;5077136;28;20447;-69
2023/09/27 00:41:55;;;;;;;10.00;9.70;;;22.50;94.30;;;;;;5074459;28;20493;-68
2023/09/27 00:44:23;;;;;;;10.47;10.07;;;22.50;94.30;;;;;;5079106;28;20559;-69
2023/09/27 00:46:52;;;;;;;11.10;10.70;;;22.50;94.30;;;;;;5074388;28;20489;-69
2023/09/27 00:49:19;;;;;;;10.80;10.50;;;22.50;94.40;;;;;;5076788;28;20958;-69
2023/09/27 00:51:46;;;;;;;11.60;11.20;;;22.40;94.30;;;;;;5075409;28;20455;-70
2023/09/27 00:54:15;;;;;;;11.40;10.90;;;22.50;94.40;;;;;;5076198;28;21039;-69
2023/09/27 00:56:42;;;;;;;10.67;10.37;;;22.40;94.30;;;;;;5074786;28;20451;-69
2023/09/27 00:59:09;;;;;;;10.87;10.57;;;22.40;94.30;;;;;;5074361;28;20486;-69
2023/09/27 01:01:37;;;;;;;10.67;10.30;;;22.40;94.40;;;;;;5074298;28;20489;-69
2023/09/27 01:04:05;;;;;;;12.10;11.70;;;22.40;94.30;;;;;;5074221;28;20499;-69
2023/09/27 01:06:33;;;;;;;10.27;9.90;;;22.40;94.40;;;;;;5073854;28;20466;-69
2023/09/27 01:09:00;;;;;;;10.73;10.23;;;22.40;94.50;;;;;;5078609;28;20543;-69
2023/09/27 01:11:29;;;;;;;10.77;10.47;;;22.40;94.30;;;;;;5074027;28;20827;-69
2023/09/27 01:13:56;;;;;;;10.70;10.30;;;22.40;94.40;;;;;;5074943;28;20462;-69
2023/09/27 01:16:23;;;;;;;9.83;9.53;;;22.40;94.50;;;;;;5076512;28;20443;-69
2023/09/27 01:18:50;;;;;;;10.00;9.70;;;22.40;94.40;;;;;;5076967;28;20576;-69
2023/09/27 01:21:19;;;;;;;10.00;9.60;;;22.40;94.30;;;;;;5073798;28;20743;-69
2023/09/27 01:23:50;;;;;;;10.43;10.13;;;22.40;94.30;;;;;;5073798;28;20946;-69
2023/09/27 01:26:18;;;;;;;10.50;10.20;;;22.40;94.40;;;;;;5065497;28;20475;-70
2023/09/27 01:28:46;;;;;;;11.17;10.77;;;22.40;94.30;;;;;;5075908;28;20482;-69
2023/09/27 01:31:13;;;;;;;10.80;10.50;;;22.40;94.40;;;;;;5073786;28;20482;-69
2023/09/27 01:33:40;;;;;;;11.60;11.20;;;22.40;94.20;;;;;;5073738;28;20497;-69
2023/09/27 01:36:08;;;;;;;11.33;11.00;;;22.40;94.30;;;;;;5073493;28;20490;-69
2023/09/27 01:38:35;;;;;;;10.73;10.33;;;22.40;94.30;;;;;;5075698;28;20538;-69
2023/09/27 01:41:03;;;;;;;10.80;10.40;;;22.40;94.30;;;;;;5083536;28;20485;-69
2023/09/27 01:43:31;;;;;;;10.80;10.50;;;22.30;94.30;;;;;;5074714;28;20802;-69
2023/09/27 01:45:58;;;;;;;10.70;10.37;;;22.30;94.30;;;;;;5073203;28;20994;-69
2023/09/27 01:48:25;;;;;;;13.23;12.80;;;22.30;94.20;;;;;;5076795;28;20504;-69
2023/09/27 01:50:52;;;;;;;10.83;10.43;;;22.30;94.20;;;;;;5075314;28;20486;-69
2023/09/27 01:53:19;;;;;;;10.33;10.03;;;22.30;94.20;;;;;;5073656;28;20479;-68
2023/09/27 01:55:47;;;;;;;11.17;10.87;;;22.40;94.30;;;;;;5074324;28;20491;-68
2023/09/27 01:58:15;;;;;;;10.20;9.90;;;22.30;94.20;;;;;;5074216;28;20558;-68
2023/09/27 02:00:42;;;;;;;10.50;10.20;;;22.30;94.20;;;;;;5075001;28;20572;-68
2023/09/27 02:03:09;;;;;;;11.03;10.60;;;22.30;94.30;;;;;;5072902;28;20592;-68
2023/09/27 02:05:36;;;;;;;11.70;11.10;;;22.30;94.20;;;;;;5083080;28;20558;-68
2023/09/27 02:08:03;;;;;;;11.30;10.90;;;22.30;94.30;;;;;;5073059;28;20506;-68
2023/09/27 02:10:30;;;;;;;10.37;10.07;;;22.30;94.20;;;;;;5075862;28;20498;-68
2023/09/27 02:12:57;;;;;;;11.37;11.00;;;22.30;94.20;;;;;;5072670;28;20435;-68
2023/09/27 02:15:25;;;;;;;11.40;11.00;;;22.30;94.30;;;;;;5073696;28;20825;-68
2023/09/27 02:17:52;;;;;;;11.33;10.93;;;22.30;94.30;;;;;;5074628;28;20474;-69
2023/09/27 02:20:20;;;;;;;10.33;9.93;;;22.30;94.30;;;;;;5073668;28;20951;-69
2023/09/27 02:22:47;;;;;;;9.70;9.40;;;22.30;94.30;;;;;;5072624;28;20450;-68
2023/09/27 02:25:15;;;;;;;10.63;10.23;;;22.30;94.30;;;;;;5075385;28;20483;-68
2023/09/27 02:27:42;;;;;;;10.03;9.70;;;22.30;94.30;;;;;;5071874;28;20535;-68
2023/09/27 02:30:12;;;;;;;10.43;10.13;;;22.30;94.30;;;;;;5076943;28;20826;-68
2023/09/27 02:32:41;;;;;;;10.20;9.90;;;22.20;94.20;;;;;;5072864;28;20522;-69
2023/09/27 02:35:10;;;;;;;10.20;9.93;;;22.20;94.20;;;;;;5072010;28;20483;-68
2023/09/27 02:37:37;;;;;;;11.43;10.93;;;22.20;94.20;;;;;;5072154;28;20947;-69
2023/09/27 02:40:11;;;;;;;10.13;9.83;;;22.20;94.30;;;;;;5072344;28;20475;-68
2023/09/27 02:42:39;;;;;;;10.43;10.13;;;22.20;94.30;;;;;;5071962;28;20930;-68
2023/09/27 02:45:08;;;;;;;10.87;10.27;;;22.20;94.30;;;;;;5080920;28;20488;-68
2023/09/27 02:47:35;;;;;;;10.60;10.10;;;22.20;94.30;;;;;;5073246;28;20950;-68
2023/09/27 02:50:05;;;;;;;10.30;10.00;;;22.20;94.30;;;;;;5073051;28;20561;-68
2023/09/27 02:52:32;;;;;;;11.80;11.20;;;22.20;94.40;;;;;;5071985;28;20524;-68
2023/09/27 02:54:59;;;;;;;10.73;10.43;;;22.20;94.30;;;;;;5076426;28;20459;-69
2023/09/27 02:57:26;;;;;;;10.50;10.20;;;22.20;94.40;;;;;;5072062;28;20447;-68
2023/09/27 02:59:53;;;;;;;11.80;11.40;;;22.20;94.40;;;;;;5076804;28;21380;-68
2023/09/27 03:02:21;;;;;;;12.50;12.00;;;22.20;94.40;;;;;;5081177;28;20467;-68
2023/09/27 03:04:48;;;;;;;12.43;12.10;;;22.20;94.40;;;;;;5071594;28;21009;-69
2023/09/27 03:07:17;;;;;;;12.30;11.90;;;22.20;94.40;;;;;;5071903;28;20435;-68
2023/09/27 03:09:44;;;;;;;12.50;12.00;;;22.20;94.40;;;;;;5079809;28;20524;-68
2023/09/27 03:12:11;;;;;;;11.10;10.80;;;22.20;94.40;;;;;;5072725;28;20443;-68
2023/09/27 03:14:38;;;;;;;11.43;11.03;;;22.20;94.40;;;;;;5084221;28;20458;-68
2023/09/27 03:17:06;;;;;;;11.50;11.20;;;22.20;94.40;;;;;;5069720;28;20439;-69
2023/09/27 03:19:33;;;;;;;11.60;11.20;;;22.20;94.40;;;;;;5071930;28;20443;-68
2023/09/27 03:21:59;;;;;;;12.00;11.60;;;22.10;94.40;;;;;;5071668;28;21001;-69
2023/09/27 03:24:29;;;;;;;12.60;12.17;;;22.20;94.40;;;;;;5076174;28;20498;-69
2023/09/27 03:26:57;;;;;;;11.93;11.47;;;22.20;94.40;;;;;;5071339;28;20482;-69
2023/09/27 03:29:24;;;;;;;11.10;10.80;;;22.10;94.40;;;;;;5075344;28;20451;-69
2023/09/27 03:31:50;;;;;;;12.00;11.60;;;22.10;94.40;;;;;;5071447;28;20462;-68
2023/09/27 03:34:17;;;;;;;11.73;11.40;;;22.10;94.40;;;;;;5076132;28;20491;-68
2023/09/27 03:36:45;;;;;;;12.23;11.83;;;22.10;94.40;;;;;;5072234;28;20467;-68
2023/09/27 03:39:14;;;;;;;12.40;11.80;;;22.10;94.40;;;;;;5070597;28;20883;-68
2023/09/27 03:41:42;;;;;;;11.20;10.90;;;22.10;94.40;;;;;;5075860;28;20534;-68
2023/09/27 03:44:09;;;;;;;10.90;10.60;;;22.10;94.40;;;;;;5071249;28;20891;-68
2023/09/27 03:46:36;;;;;;;11.80;11.43;;;22.10;94.50;;;;;;5071249;28;20517;-68
2023/09/27 03:49:03;;;;;;;11.37;11.00;;;22.10;94.40;;;;;;5074798;28;20489;-69
2023/09/27 03:51:30;;;;;;;12.43;12.00;;;22.10;94.50;;;;;;5071375;28;20893;-68
2023/09/27 03:53:57;;;;;;;11.40;11.07;;;22.10;94.50;;;;;;5083658;28;20535;-69
2023/09/27 03:56:24;;;;;;;11.50;11.10;;;22.10;94.50;;;;;;5071024;28;20467;-69
2023/09/27 03:58:52;;;;;;;12.53;12.13;;;22.10;94.50;;;;;;5073921;28;20477;-69
2023/09/27 04:01:19;;;;;;;16.07;15.57;;;22.10;94.50;;;;;;5073138;28;20455;-69
2023/09/27 04:03:47;;;;;;;12.90;12.50;;;22.10;94.50;;;;;;5073985;28;20486;-69
2023/09/27 04:06:13;;;;;;;12.93;12.53;;;22.10;94.50;;;;;;5081826;28;20994;-69
2023/09/27 04:08:40;;;;;;;14.10;13.50;;;22.10;94.50;;;;;;5072299;28;20445;-69
2023/09/27 04:11:08;;;;;;;13.30;12.80;;;22.10;94.50;;;;;;5077958;28;20228;-69
2023/09/27 04:13:35;;;;;;;12.73;12.33;;;22.00;94.40;;;;;;5071041;28;20451;-69
2023/09/27 04:16:04;;;;;;;12.30;12.00;;;22.00;94.50;;;;;;5071473;28;20471;-69
2023/09/27 04:18:32;;;;;;;12.80;12.40;;;22.00;94.40;;;;;;5070888;28;20810;-69
2023/09/27 04:21:06;;;;;;;12.90;12.50;;;22.00;94.40;;;;;;5071741;28;20869;-69
2023/09/27 04:23:34;;;;;;;12.90;12.50;;;22.00;94.50;;;;;;5073022;28;20436;-69
2023/09/27 04:26:01;;;;;;;12.83;12.40;;;22.00;94.50;;;;;;5073637;28;20471;-68
2023/09/27 04:28:28;;;;;;;12.93;12.53;;;22.00;94.40;;;;;;5070854;28;20947;-69
2023/09/27 04:30:55;;;;;;;13.73;13.20;;;22.10;94.50;;;;;;5073557;28;20451;-69
2023/09/27 04:33:24;;;;;;;13.07;12.37;;;22.00;94.40;;;;;;5068784;28;20475;-68
2023/09/27 04:35:51;;;;;;;14.47;13.33;;;22.10;94.90;;;;;;5071869;28;20471;-69
2023/09/27 04:38:18;;;;;;;14.37;13.60;;;22.10;95.80;;;;;;5067693;28;20482;-68
2023/09/27 04:40:46;;;;;;;16.83;15.60;;;22.10;97.00;;;;;;5073399;28;20445;-68
2023/09/27 04:43:13;;;;;;;20.07;13.80;;;22.10;98.30;;;;;;5075369;28;20478;-68
2023/09/27 04:45:40;;;;;;;18.80;14.23;;;22.10;99.70;;;;;;5071649;28;20566;-67
2023/09/27 04:48:07;;;;;;;15.53;13.87;;;22.20;99.90;;;;;;5070661;28;20467;-67
2023/09/27 04:50:35;;;;;;;17.63;14.63;;;22.10;99.90;;;;;;5073444;28;20436;-67
2023/09/27 04:53:02;;;;;;;16.17;14.57;;;22.20;99.90;;;;;;5074013;28;20846;-68
2023/09/27 04:55:29;;;;;;;16.60;12.30;;;22.20;99.90;;;;;;5074048;28;20516;-68
2023/09/27 04:57:56;;;;;;;13.93;12.60;;;22.10;99.90;;;;;;5074222;28;20475;-68
2023/09/27 05:00:23;;;;;;;21.93;15.90;;;22.10;99.90;;;;;;5065853;28;20504;-68
2023/09/27 05:02:52;;;;;;;15.10;13.43;;;22.10;99.90;;;;;;5074067;28;20507;-68
2023/09/27 05:05:19;;;;;;;16.73;14.67;;;22.10;99.90;;;;;;5073557;28;20455;-68
2023/09/27 05:07:48;;;;;;;16.00;13.43;;;22.10;99.90;;;;;;5074005;28;20468;-68
2023/09/27 05:10:15;;;;;;;15.60;13.57;;;22.10;99.90;;;;;;5073942;28;20477;-68
2023/09/27 05:12:42;;;;;;;20.27;13.50;;;22.10;99.90;;;;;;5073827;28;20440;-68
2023/09/27 05:15:09;;;;;;;15.20;13.63;;;22.10;99.90;;;;;;5073430;28;20502;-68
2023/09/27 05:17:36;;;;;;;14.63;13.33;;;22.00;99.90;;;;;;5073702;28;20434;-68
2023/09/27 05:20:06;;;;;;;15.80;14.30;;;22.00;99.90;;;;;;5073661;28;20467;-68
2023/09/27 05:22:33;;;;;;;16.17;14.57;;;22.00;99.70;;;;;;5073902;28;20444;-68
2023/09/27 05:25:02;;;;;;;14.43;13.60;;;22.00;99.60;;;;;;5073176;28;20904;-68
2023/09/27 05:27:28;;;;;;;16.47;13.83;;;22.00;99.40;;;;;;5073522;28;20486;-68
2023/09/27 05:29:55;;;;;;;12.47;11.77;;;22.00;99.20;;;;;;5073490;28;20471;-67
2023/09/27 05:32:23;;;;;;;14.70;13.40;;;22.00;99.00;;;;;;5073307;28;20472;-67
2023/09/27 05:34:51;;;;;;;13.13;12.30;;;22.00;98.80;;;;;;5073268;28;20880;-67
2023/09/27 05:37:18;;;;;;;12.93;11.77;;;22.00;98.60;;;;;;5073311;28;20479;-67
2023/09/27 05:39:44;;;;;;;14.80;13.70;;;22.00;98.50;;;;;;5073331;28;20469;-67
2023/09/27 05:42:13;;;;;;;12.67;11.67;;;22.00;98.40;;;;;;5073050;28;20874;-67
2023/09/27 05:44:40;;;;;;;13.27;12.37;;;22.00;98.30;;;;;;5072770;28;20463;-68
2023/09/27 05:47:07;;;;;;;13.33;11.93;;;22.00;98.20;;;;;;5073015;28;20559;-67
2023/09/27 05:49:34;;;;;;;14.10;12.90;;;22.00;98.10;;;;;;5073157;28;20934;-67
2023/09/27 05:52:02;;;;;;;13.23;12.33;;;22.00;98.00;;;;;;5072975;28;20467;-68
2023/09/27 05:54:29;;;;;;;12.23;11.43;;;21.90;97.90;;;;;;5072861;28;20477;-67
2023/09/27 05:56:56;;;;;;;13.63;12.73;;;21.90;97.80;;;;;;5073081;28;20510;-67
2023/09/27 05:59:24;;;;;;;14.47;13.10;;;21.90;97.70;;;;;;5072755;28;20459;-68
2023/09/27 06:01:51;;;;;;;13.63;12.83;;;21.90;97.60;;;;;;5072895;28;20443;-67
2023/09/27 06:04:19;;;;;;;15.47;14.60;;;21.90;97.60;;;;;;5072446;28;21026;-68
2023/09/27 06:06:46;;;;;;;14.10;13.20;;;21.90;97.40;;;;;;5072703;28;20894;-67
2023/09/27 06:09:13;;;;;;;13.40;12.70;;;21.90;97.30;;;;;;5072687;28;20473;-67
2023/09/27 06:11:40;;;;;;;14.67;13.63;;;21.90;97.30;;;;;;5072640;28;20807;-67
2023/09/27 06:14:10;;;;;;;15.07;13.87;;;21.90;97.20;;;;;;5072420;28;20491;-68
2023/09/27 06:16:38;;;;;;;14.73;13.80;;;21.90;97.10;;;;;;5072404;28;20522;-68
2023/09/27 06:19:05;;;;;;;15.20;14.00;;;21.90;97.10;;;;;;5072424;28;20439;-68
2023/09/27 06:21:33;;;;;;;15.43;14.37;;;21.90;97.00;;;;;;5072565;28;20858;-67
2023/09/27 06:24:00;;;;;;;15.27;14.27;;;21.90;96.90;;;;;;5072405;28;20455;-68
2023/09/27 06:26:27;;;;;;;14.30;13.27;;;21.90;96.90;;;;;;5064220;28;20479;-68
2023/09/27 06:28:55;;;;;;;14.43;13.63;;;21.90;96.80;;;;;;5072377;28;20531;-68
2023/09/27 06:31:22;;;;;;;14.23;13.10;;;21.90;96.70;;;;;;5072182;28;20468;-68
2023/09/27 06:33:51;;;;;;;14.10;13.13;;;21.90;96.70;;;;;;5072129;28;20450;-68
2023/09/27 06:36:21;;;;;;;14.33;13.53;;;21.90;96.70;;;;;;5072008;28;20443;-68
2023/09/27 06:38:48;;;;;;;15.83;14.90;;;21.90;96.60;;;;;;5072164;28;20439;-68
2023/09/27 06:41:16;;;;;;;14.77;13.93;;;21.90;96.50;;;;;;5071889;28;20819;-68
2023/09/27 06:43:43;;;;;;;14.17;13.47;;;21.90;96.40;;;;;;5072049;28;20466;-68
2023/09/27 06:46:10;;;;;;;14.43;13.73;;;21.90;96.30;;;;;;5071730;28;20475;-68
2023/09/27 06:48:38;;;;;;;16.00;15.20;;;21.90;96.30;;;;;;5072037;28;20465;-68
2023/09/27 06:51:07;;;;;;;14.77;14.13;;;21.90;96.30;;;;;;5071802;28;20439;-68
2023/09/27 06:53:34;;;;;;;15.37;14.57;;;21.90;96.20;;;;;;5072003;28;20442;-68
2023/09/27 06:56:02;;;;;;;15.70;14.87;;;21.90;96.20;;;;;;5071918;28;20463;-68
2023/09/27 06:58:30;;;;;;;16.17;15.03;;;21.90;96.10;;;;;;5063984;28;20442;-68
2023/09/27 07:00:56;;;;;;;15.60;14.70;;;21.90;96.10;;;;;;5071863;28;20435;-68
2023/09/27 07:03:27;;;;;;;14.20;13.40;;;21.90;96.00;;;;;;5071731;28;20864;-68
2023/09/27 07:05:54;;;;;;;15.20;14.23;;;21.90;96.00;;;;;;5071403;28;20459;-68
2023/09/27 07:08:23;;;;;;;14.37;13.47;;;21.90;96.00;;;;;;5071616;28;20474;-68
2023/09/27 07:10:50;;;;;;;15.03;14.27;;;21.90;95.90;;;;;;5071574;28;20471;-68
2023/09/27 07:13:17;;;;;;;14.70;13.90;;;21.90;95.90;;;;;;5071063;28;20942;-68
2023/09/27 07:15:45;;;;;;;14.50;13.80;;;21.90;95.90;;;;;;5071354;28;20499;-68
2023/09/27 07:18:12;;;;;;;15.10;14.30;;;21.90;95.90;;;;;;5071521;28;20859;-67
2023/09/27 07:20:41;;;;;;;15.30;14.17;;;21.90;95.80;;;;;;5071576;28;20478;-68
2023/09/27 07:23:08;;;;;;;14.17;13.47;;;21.90;95.80;;;;;;5071359;28;20443;-68
2023/09/27 07:25:37;;;;;;;14.90;14.20;;;21.90;95.70;;;;;;5071219;28;20977;-68
2023/09/27 07:28:05;;;;;;;14.30;13.50;;;21.90;95.60;;;;;;5071225;28;20517;-68
2023/09/27 07:30:34;;;;;;;15.43;14.57;;;21.90;95.60;;;;;;5071418;28;20443;-68
2023/09/27 07:33:03;;;;;;;16.23;15.30;;;21.90;95.60;;;;;;5071501;28;20447;-68
2023/09/27 07:35:33;;;;;;;14.90;14.00;;;21.90;95.50;;;;;;5071112;28;20880;-68
2023/09/27 07:38:01;;;;;;;14.60;14.10;;;21.90;95.50;;;;;;5071560;28;20443;-68
2023/09/27 07:40:27;;;;;;;14.13;13.43;;;21.90;95.50;;;;;;5071135;28;20444;-68
2023/09/27 07:42:55;;;;;;;14.30;13.50;;;21.90;95.40;;;;;;5071302;28;20453;-68
2023/09/27 07:45:22;;;;;;;14.90;13.93;;;21.90;95.40;;;;;;5070858;28;20494;-68
2023/09/27 07:47:51;;;;;;;13.20;12.50;;;21.90;95.40;;;;;;5071156;28;20541;-68
2023/09/27 07:50:18;;;;;;;11.87;11.37;;;21.90;95.30;;;;;;5070993;28;20861;-68
2023/09/27 07:52:46;;;;;;;14.90;14.20;;;21.90;95.30;;;;;;5071242;28;20432;-68
2023/09/27 07:55:14;;;;;;;14.80;14.10;;;21.90;95.20;;;;;;5101752;22;21008;-69
2023/09/27 07:57:43;;;;;;;13.40;12.80;;;21.90;95.50;;;;;;5051343;28;20864;-69
2023/09/27 08:00:15;;;;;;;13.97;13.37;;;21.90;95.20;;;;;;5051356;28;20847;-69
2023/09/27 08:02:43;;;;;;;14.00;13.20;;;21.90;95.20;;;;;;5051294;28;20447;-70
2023/09/27 08:05:10;;;;;;;13.90;13.20;;;21.90;95.20;;;;;;5049769;28;20456;-69
2023/09/27 08:07:38;;;;;;;13.40;12.80;;;21.90;95.10;;;;;;5039279;28;20520;-69
2023/09/27 08:10:06;;;;;;;13.47;12.70;;;21.90;95.10;;;;;;5039419;28;20849;-69
2023/09/27 08:12:34;;;;;;;14.10;13.47;;;21.90;95.10;;;;;;5042787;28;20530;-69
2023/09/27 08:15:03;;;;;;;12.83;12.37;;;21.90;95.00;;;;;;5042434;28;20484;-69
2023/09/27 08:17:32;;;;;;;13.97;13.27;;;21.90;95.10;;;;;;5042920;28;20563;-70
2023/09/27 08:19:59;;;;;;;14.17;13.67;;;21.90;95.00;;;;;;5042861;28;20444;-69
2023/09/27 08:22:26;;;;;;;13.30;12.80;;;21.90;94.90;;;;;;5039565;28;20471;-69
2023/09/27 08:24:53;;;;;;;13.50;12.90;;;21.90;94.90;;;;;;5040796;28;20484;-69
2023/09/27 08:27:20;;;;;;;12.80;12.10;;;21.90;94.80;;;;;;5045022;28;20515;-70
2023/09/27 08:29:47;;;;;;;13.20;12.60;;;21.90;94.80;;;;;;5046506;28;20951;-69
2023/09/27 08:32:14;;;;;;;14.43;13.63;;;21.90;94.70;;;;;;5044985;28;20474;-69
2023/09/27 08:34:42;;;;;;;13.73;13.13;;;21.90;94.70;;;;;;5042612;28;20497;-69
2023/09/27 08:37:11;;;;;;;12.70;12.20;;;21.90;94.70;;;;;;5043263;28;20472;-69
2023/09/27 08:39:38;;;;;;;12.97;12.57;;;21.90;94.60;;;;;;5046221;28;20853;-69
2023/09/27 08:42:05;;;;;;;13.00;12.50;;;21.90;94.60;;;;;;5046049;28;20440;-69
2023/09/27 08:44:34;;;;;;;14.00;13.37;;;21.90;94.60;;;;;;5042426;28;20500;-69
2023/09/27 08:47:01;;;;;;;12.67;11.90;;;21.90;94.60;;;;;;5042637;28;21065;-70
2023/09/27 08:49:28;;;;;;;13.43;12.70;;;21.90;94.50;;;;;;5050925;28;20440;-69
2023/09/27 08:51:57;;;;;;;13.43;13.00;;;21.90;94.50;;;;;;5042556;28;20475;-70
2023/09/27 08:54:24;;;;;;;12.50;12.00;;;21.90;94.50;;;;;;5044600;28;20468;-69
2023/09/27 08:56:52;;;;;;;12.97;12.57;;;21.90;94.50;;;;;;5045967;28;20478;-70
2023/09/27 08:59:20;;;;;;;13.60;12.90;;;21.90;94.50;;;;;;5044319;28;20947;-70
2023/09/27 09:01:48;;;;;;;14.47;13.50;;;21.90;94.50;;;;;;5042557;28;20437;-70
2023/09/27 09:04:15;;;;;;;14.00;13.40;;;21.90;94.40;;;;;;5043506;28;20491;-70
2023/09/27 09:06:43;;;;;;;13.50;13.00;;;21.90;94.40;;;;;;5045699;28;20556;-69
2023/09/27 09:09:11;;;;;;;14.80;14.10;;;21.90;94.40;;;;;;5045070;28;20476;-69
2023/09/27 09:11:43;;;;;;;14.60;14.00;;;21.90;94.30;;;;;;5042208;28;20816;-69
2023/09/27 09:14:10;;;;;;;14.23;13.73;;;21.90;94.30;;;;;;5050354;28;20471;-70
2023/09/27 09:16:47;;;;;;;14.23;13.60;;;21.90;94.30;;;;;;5042122;28;20496;-69
2023/09/27 09:19:22;;;;;;;13.33;12.77;;;21.90;94.30;;;;;;5050292;28;20447;-70
2023/09/27 09:21:56;;;;;;;15.07;14.27;;;21.90;94.30;;;;;;5047944;28;21046;-69
2023/09/27 09:24:25;;;;;;;13.80;13.20;;;21.90;94.30;;;;;;5042764;28;20451;-69
2023/09/27 09:27:07;;;;;;;13.83;13.27;;;21.90;94.30;;;;;;5042045;28;20481;-70
2023/09/27 09:29:53;;;;;;;13.77;13.17;;;21.90;94.30;;;;;;5041938;28;20434;-69
2023/09/27 09:32:20;;;;;;;13.40;12.80;;;21.90;94.30;;;;;;5050023;28;20440;-69
2023/09/27 09:34:48;;;;;;;13.23;12.73;;;21.90;94.30;;;;;;5041171;28;20461;-69
2023/09/27 09:37:19;;;;;;;14.33;13.83;;;21.90;94.30;;;;;;5042980;28;20442;-69
2023/09/27 09:39:49;;;;;;;14.80;14.30;;;21.90;94.30;;;;;;5045166;28;20494;-69
2023/09/27 09:42:31;;;;;;;14.23;13.53;;;21.90;94.30;;;;;;5043857;28;20463;-69
2023/09/27 09:45:05;;;;;;;14.80;14.20;;;21.90;94.30;;;;;;5048448;28;20804;-69
2023/09/27 09:47:32;;;;;;;13.73;13.23;;;21.90;94.60;;;;;;5041621;28;20568;-69
2023/09/27 09:50:00;;;;;;;13.50;13.00;;;21.90;94.20;;;;;;5041499;28;20449;-70
2023/09/27 09:52:28;;;;;;;13.73;13.30;;;21.90;94.30;;;;;;5044128;28;20495;-69
2023/09/27 09:54:58;;;;;;;13.43;12.90;;;21.90;94.20;;;;;;5044591;28;20466;-69
2023/09/27 09:57:35;;;;;;;13.73;13.23;;;21.90;94.20;;;;;;5042586;28;20467;-69
2023/09/27 10:00:12;;;;;;;13.73;13.03;;;21.90;94.20;;;;;;5048841;28;20479;-69
2023/09/27 10:02:47;;;;;;;13.50;13.00;;;21.90;94.20;;;;;;5044794;28;20440;-70
2023/09/27 10:05:15;;;;;;;14.33;13.83;;;21.90;94.20;;;;;;5043640;28;20470;-69
2023/09/27 10:07:44;;;;;;;14.70;13.80;;;21.90;94.10;;;;;;5041008;28;20560;-69
2023/09/27 10:10:13;;;;;;;14.77;14.27;;;21.90;94.20;;;;;;5041311;28;20507;-69
2023/09/27 10:12:42;;;;;;;13.70;13.20;;;21.90;94.20;;;;;;5044673;28;20432;-69
2023/09/27 10:15:09;;;;;;;14.37;13.87;;;21.90;94.20;;;;;;5044213;28;20584;-69
2023/09/27 10:17:36;;;;;;;14.13;13.63;;;21.90;94.20;;;;;;5040978;28;20430;-70
2023/09/27 10:20:14;;;;;;;14.33;13.80;;;21.90;94.20;;;;;;5041083;28;20476;-70
2023/09/27 10:22:42;;;;;;;14.10;13.60;;;21.90;94.20;;;;;;5041058;28;20451;-69
2023/09/27 10:25:37;;;;;;;13.87;13.33;;;21.90;94.20;;;;;;5040644;28;20497;-69
2023/09/27 10:28:05;;;;;;;14.90;14.40;;;21.90;94.20;;;;;;5044169;28;20533;-69
2023/09/27 10:31:07;;;;;;;14.60;14.10;;;21.90;94.10;;;;;;5044106;28;20933;-70
2023/09/27 10:33:34;;;;;;;12.80;12.40;;;21.90;94.20;;;;;;5044213;28;20519;-70
2023/09/27 10:36:30;;;;;;;14.27;13.70;;;21.90;94.10;;;;;;5043863;28;20452;-69
2023/09/27 10:39:01;;;;;;;13.13;12.70;;;21.90;94.10;;;;;;5040582;28;20433;-69
2023/09/27 10:41:44;;;;;;;13.50;13.00;;;21.90;94.10;;;;;;5043145;28;20468;-69
2023/09/27 10:44:12;;;;;;;14.30;13.80;;;21.90;94.00;;;;;;5043605;28;20517;-69
2023/09/27 10:46:43;;;;;;;13.77;13.17;;;21.90;94.00;;;;;;5039662;28;20452;-69
2023/09/27 10:49:10;;;;;;;13.80;13.30;;;22.00;94.00;;;;;;5040273;28;20519;-69
2023/09/27 10:51:37;;;;;;;14.83;14.17;;;22.00;94.00;;;;;;5040307;28;20473;-70
2023/09/27 10:54:08;;;;;;;13.43;13.00;;;22.00;93.90;;;;;;5040344;28;20476;-70
2023/09/27 10:56:35;;;;;;;14.00;13.60;;;22.00;93.90;;;;;;5048301;28;20526;-70
2023/09/27 10:59:04;;;;;;;15.10;14.50;;;22.00;93.90;;;;;;5040188;28;20469;-70
2023/09/27 11:01:33;;;;;;;13.63;13.23;;;22.00;93.80;;;;;;5043271;28;20882;-69
2023/09/27 11:04:00;;;;;;;14.53;13.93;;;22.00;93.80;;;;;;5043642;28;20448;-70
2023/09/27 11:06:28;;;;;;;12.93;12.53;;;22.00;93.80;;;;;;5040730;28;20492;-69
2023/09/27 11:09:05;;;;;;;13.23;12.73;;;22.00;93.70;;;;;;5039844;28;20477;-69
2023/09/27 11:11:32;;;;;;;12.70;12.30;;;22.10;93.80;;;;;;5048123;28;20524;-69
2023/09/27 11:13:59;;;;;;;13.70;13.30;;;22.10;93.70;;;;;;5039993;28;20491;-69
2023/09/27 11:16:27;;;;;;;14.30;13.70;;;22.10;93.70;;;;;;5041622;28;20544;-69
2023/09/27 11:18:56;;;;;;;14.13;13.63;;;22.00;93.70;;;;;;5043383;28;20464;-69
2023/09/27 11:21:25;;;;;;;14.63;14.00;;;22.00;93.70;;;;;;5041602;28;20448;-69
2023/09/27 11:23:57;;;;;;;12.97;12.47;;;22.10;93.70;;;;;;5039885;28;20445;-69
2023/09/27 11:26:24;;;;;;;13.77;13.27;;;22.10;93.70;;;;;;5047701;28;20499;-69
2023/09/27 11:29:02;;;;;;;13.20;12.80;;;22.00;93.70;;;;;;5039849;28;20480;-69
2023/09/27 11:31:32;;;;;;;13.23;12.83;;;22.00;93.70;;;;;;5047921;28;20444;-70
2023/09/27 11:34:12;;;;;;;13.10;12.60;;;22.10;93.70;;;;;;5039834;28;20476;-69
2023/09/27 11:36:46;;;;;;;13.00;12.60;;;22.00;93.70;;;;;;5039353;28;20469;-70
2023/09/27 11:39:14;;;;;;;13.73;13.30;;;22.10;93.80;;;;;;5047924;28;20790;-70
2023/09/27 11:41:41;;;;;;;13.20;12.80;;;22.10;93.80;;;;;;5039635;28;20448;-69
2023/09/27 11:44:18;;;;;;;13.23;12.83;;;22.00;93.70;;;;;;5039513;28;20457;-69
2023/09/27 11:46:49;;;;;;;13.97;13.57;;;22.00;93.80;;;;;;5039484;28;20464;-70
2023/09/27 11:49:17;;;;;;;14.70;14.00;;;22.10;93.80;;;;;;5047798;28;20521;-70
2023/09/27 11:51:44;;;;;;;13.50;13.07;;;22.10;93.80;;;;;;5039453;28;20444;-70
2023/09/27 11:54:12;;;;;;;14.60;14.10;;;22.10;93.80;;;;;;5039444;28;20944;-70
2023/09/27 11:56:39;;;;;;;13.17;12.77;;;22.10;93.80;;;;;;5039327;28;20437;-69
2023/09/27 11:59:07;;;;;;;13.90;13.40;;;22.10;93.70;;;;;;5041814;28;20472;-69
2023/09/27 12:01:34;;;;;;;13.07;12.67;;;22.10;93.80;;;;;;5046366;28;20802;-69
2023/09/27 12:04:03;;;;;;;13.00;12.70;;;22.10;93.70;;;;;;5046861;28;20448;-69
2023/09/27 12:06:31;;;;;;;14.17;13.67;;;22.10;93.70;;;;;;5044163;28;20858;-69
2023/09/27 12:08:59;;;;;;;14.77;14.10;;;22.10;93.70;;;;;;5043328;28;20477;-69
2023/09/27 12:11:26;;;;;;;13.83;13.37;;;22.10;93.60;;;;;;5045247;28;20444;-69
2023/09/27 12:13:53;;;;;;;14.07;13.57;;;22.20;93.60;;;;;;5046745;28;20448;-69
2023/09/27 12:16:21;;;;;;;13.40;13.00;;;22.20;93.60;;;;;;5045296;28;20478;-69
2023/09/27 12:18:48;;;;;;;13.57;13.17;;;22.20;93.60;;;;;;5043413;28;21000;-69
2023/09/27 12:21:16;;;;;;;12.37;11.97;;;22.20;93.50;;;;;;5043252;28;20948;-69
2023/09/27 12:23:44;;;;;;;14.10;13.70;;;22.20;93.50;;;;;;5046638;28;20518;-70
2023/09/27 12:26:12;;;;;;;12.67;12.30;;;22.20;93.50;;;;;;5046303;28;20473;-69
2023/09/27 12:28:39;;;;;;;13.77;13.37;;;22.20;93.50;;;;;;5043016;28;20487;-69
2023/09/27 12:31:06;;;;;;;14.03;13.47;;;22.20;93.40;;;;;;5042902;28;20476;-69
2023/09/27 12:33:34;;;;;;;13.17;12.67;;;22.20;93.40;;;;;;5045691;28;20484;-69